sensor_id;sensor_type;location;lat;lon;timestamp;P1;durP1;ratioP1;P2;durP2;ratioP2
62679;SDS011;48746;55.578;37.902;2022-07-11T00:01:43;15.13;;;6.30;;
62679;SDS011;48746;55.578;37.902;2022-07-11T00:07:17;9.45;;;6.80;;
62679;SDS011;48746;55.578;37.902;2022-07-11T00:09:43;10.73;;;6.63;;
62679;SDS011;48746;55.578;37.902;2022-07-11T00:12:10;9.35;;;6.55;;
62679;SDS011;48746;55.578;37.902;2022-07-11T00:17:44;11.15;;;7.60;;
62679;SDS011;48746;55.578;37.902;2022-07-11T00:20:10;15.32;;;7.75;;
62679;SDS011;48746;55.578;37.902;2022-07-11T00:22:36;14.05;;;8.45;;
62679;SDS011;48746;55.578;37.902;2022-07-11T00:28:09;9.90;;;8.20;;
62679;SDS011;48746;55.578;37.902;2022-07-11T00:30:35;12.82;;;7.63;;
62679;SDS011;48746;55.578;37.902;2022-07-11T00:33:01;11.55;;;7.63;;
62679;SDS011;48746;55.578;37.902;2022-07-11T00:38:34;13.95;;;7.15;;
62679;SDS011;48746;55.578;37.902;2022-07-11T00:41:00;9.90;;;7.05;;
62679;SDS011;48746;55.578;37.902;2022-07-11T00:43:30;11.20;;;6.32;;
62679;SDS011;48746;55.578;37.902;2022-07-11T00:46:01;9.65;;;6.57;;
62679;SDS011;48746;55.578;37.902;2022-07-11T00:48:27;10.10;;;5.88;;
62679;SDS011;48746;55.578;37.902;2022-07-11T00:50:54;8.68;;;6.85;;
62679;SDS011;48746;55.578;37.902;2022-07-11T00:56:28;11.48;;;8.27;;
62679;SDS011;48746;55.578;37.902;2022-07-11T01:01:24;13.68;;;7.47;;
62679;SDS011;48746;55.578;37.902;2022-07-11T01:06:55;14.20;;;7.70;;
62679;SDS011;48746;55.578;37.902;2022-07-11T01:09:21;11.20;;;7.70;;
62679;SDS011;48746;55.578;37.902;2022-07-11T01:11:48;9.35;;;6.75;;
62679;SDS011;48746;55.578;37.902;2022-07-11T01:17:21;15.07;;;6.70;;
62679;SDS011;48746;55.578;37.902;2022-07-11T01:19:47;11.55;;;6.35;;
62679;SDS011;48746;55.578;37.902;2022-07-11T01:22:13;6.75;;;6.00;;
62679;SDS011;48746;55.578;37.902;2022-07-11T01:27:57;8.52;;;6.10;;
62679;SDS011;48746;55.578;37.902;2022-07-11T01:30:24;7.78;;;5.63;;
62679;SDS011;48746;55.578;37.902;2022-07-11T01:32:52;10.38;;;5.40;;
62679;SDS011;48746;55.578;37.902;2022-07-11T01:38:26;9.80;;;5.93;;
62679;SDS011;48746;55.578;37.902;2022-07-11T01:40:53;11.35;;;5.82;;
62679;SDS011;48746;55.578;37.902;2022-07-11T01:43:22;9.00;;;5.70;;
62679;SDS011;48746;55.578;37.902;2022-07-11T01:45:52;9.27;;;5.95;;
62679;SDS011;48746;55.578;37.902;2022-07-11T01:48:19;9.50;;;6.32;;
62679;SDS011;48746;55.578;37.902;2022-07-11T01:50:46;7.50;;;6.00;;
62679;SDS011;48746;55.578;37.902;2022-07-11T01:56:21;9.55;;;6.00;;
62679;SDS011;48746;55.578;37.902;2022-07-11T01:58:48;6.75;;;5.93;;
62679;SDS011;48746;55.578;37.902;2022-07-11T02:01:15;9.65;;;6.25;;
62679;SDS011;48746;55.578;37.902;2022-07-11T02:06:48;12.95;;;6.22;;
62679;SDS011;48746;55.578;37.902;2022-07-11T02:09:14;10.57;;;6.60;;
62679;SDS011;48746;55.578;37.902;2022-07-11T02:11:41;9.45;;;6.18;;
62679;SDS011;48746;55.578;37.902;2022-07-11T02:17:14;9.07;;;6.30;;
62679;SDS011;48746;55.578;37.902;2022-07-11T02:19:40;9.48;;;6.15;;
62679;SDS011;48746;55.578;37.902;2022-07-11T02:22:06;9.82;;;6.40;;
62679;SDS011;48746;55.578;37.902;2022-07-11T02:27:40;12.80;;;5.90;;
62679;SDS011;48746;55.578;37.902;2022-07-11T02:30:06;11.40;;;6.35;;
62679;SDS011;48746;55.578;37.902;2022-07-11T02:32:33;8.65;;;6.68;;
62679;SDS011;48746;55.578;37.902;2022-07-11T02:38:06;7.20;;;6.50;;
62679;SDS011;48746;55.578;37.902;2022-07-11T02:40:32;9.20;;;7.00;;
62679;SDS011;48746;55.578;37.902;2022-07-11T02:42:59;9.15;;;6.75;;
62679;SDS011;48746;55.578;37.902;2022-07-11T02:48:28;8.50;;;6.18;;
62679;SDS011;48746;55.578;37.902;2022-07-11T02:50:55;9.23;;;6.13;;
62679;SDS011;48746;55.578;37.902;2022-07-11T02:53:25;6.75;;;6.03;;
62679;SDS011;48746;55.578;37.902;2022-07-11T02:55:51;9.93;;;5.95;;
62679;SDS011;48746;55.578;37.902;2022-07-11T02:58:17;11.52;;;6.28;;
62679;SDS011;48746;55.578;37.902;2022-07-11T03:00:43;7.82;;;6.47;;
62679;SDS011;48746;55.578;37.902;2022-07-11T03:03:13;14.52;;;6.57;;
62679;SDS011;48746;55.578;37.902;2022-07-11T03:05:39;9.10;;;6.13;;
62679;SDS011;48746;55.578;37.902;2022-07-11T03:08:05;8.70;;;6.57;;
62679;SDS011;48746;55.578;37.902;2022-07-11T03:10:31;9.32;;;6.10;;
62679;SDS011;48746;55.578;37.902;2022-07-11T03:12:58;9.50;;;6.20;;
62679;SDS011;48746;55.578;37.902;2022-07-11T03:18:31;7.35;;;6.30;;
62679;SDS011;48746;55.578;37.902;2022-07-11T03:20:58;6.60;;;5.70;;
62679;SDS011;48746;55.578;37.902;2022-07-11T03:23:27;7.47;;;5.85;;
62679;SDS011;48746;55.578;37.902;2022-07-11T03:25:53;7.03;;;6.18;;
62679;SDS011;48746;55.578;37.902;2022-07-11T03:28:19;7.30;;;6.43;;
62679;SDS011;48746;55.578;37.902;2022-07-11T03:30:45;12.20;;;6.93;;
62679;SDS011;48746;55.578;37.902;2022-07-11T03:33:14;10.48;;;6.93;;
62679;SDS011;48746;55.578;37.902;2022-07-11T03:35:40;7.78;;;6.22;;
62679;SDS011;48746;55.578;37.902;2022-07-11T03:38:10;9.68;;;6.07;;
62679;SDS011;48746;55.578;37.902;2022-07-11T03:40:37;8.70;;;5.82;;
62679;SDS011;48746;55.578;37.902;2022-07-11T03:43:04;8.05;;;6.47;;
62679;SDS011;48746;55.578;37.902;2022-07-11T03:45:30;9.40;;;5.85;;
62679;SDS011;48746;55.578;37.902;2022-07-11T03:47:56;7.03;;;6.32;;
62679;SDS011;48746;55.578;37.902;2022-07-11T03:50:23;9.02;;;5.72;;
62679;SDS011;48746;55.578;37.902;2022-07-11T03:52:49;6.50;;;5.68;;
62679;SDS011;48746;55.578;37.902;2022-07-11T03:58:22;9.55;;;5.90;;
62679;SDS011;48746;55.578;37.902;2022-07-11T04:00:48;7.25;;;6.20;;
62679;SDS011;48746;55.578;37.902;2022-07-11T04:03:17;8.95;;;5.35;;
62679;SDS011;48746;55.578;37.902;2022-07-11T04:05:44;6.90;;;5.72;;
62679;SDS011;48746;55.578;37.902;2022-07-11T04:08:09;9.27;;;5.82;;
62679;SDS011;48746;55.578;37.902;2022-07-11T04:10:36;8.30;;;6.00;;
62679;SDS011;48746;55.578;37.902;2022-07-11T04:13:02;16.80;;;6.57;;
62679;SDS011;48746;55.578;37.902;2022-07-11T04:15:27;9.27;;;6.60;;
62679;SDS011;48746;55.578;37.902;2022-07-11T04:17:54;8.00;;;6.03;;
62679;SDS011;48746;55.578;37.902;2022-07-11T04:20:20;6.63;;;5.95;;
62679;SDS011;48746;55.578;37.902;2022-07-11T04:22:47;10.68;;;6.05;;
62679;SDS011;48746;55.578;37.902;2022-07-11T04:28:21;7.72;;;5.65;;
62679;SDS011;48746;55.578;37.902;2022-07-11T04:30:47;10.35;;;5.95;;
62679;SDS011;48746;55.578;37.902;2022-07-11T04:33:13;7.22;;;5.53;;
62679;SDS011;48746;55.578;37.902;2022-07-11T04:35:40;9.25;;;5.85;;
62679;SDS011;48746;55.578;37.902;2022-07-11T04:38:06;6.47;;;5.88;;
62679;SDS011;48746;55.578;37.902;2022-07-11T04:40:32;10.30;;;5.85;;
62679;SDS011;48746;55.578;37.902;2022-07-11T04:42:58;9.30;;;6.10;;
62679;SDS011;48746;55.578;37.902;2022-07-11T04:48:31;9.18;;;6.60;;
62679;SDS011;48746;55.578;37.902;2022-07-11T04:50:58;16.60;;;6.28;;
62679;SDS011;48746;55.578;37.902;2022-07-11T04:56:28;9.57;;;6.25;;
62679;SDS011;48746;55.578;37.902;2022-07-11T04:58:54;14.95;;;5.90;;
62679;SDS011;48746;55.578;37.902;2022-07-11T05:01:20;9.20;;;6.18;;
62679;SDS011;48746;55.578;37.902;2022-07-11T05:06:53;9.57;;;6.30;;
62679;SDS011;48746;55.578;37.902;2022-07-11T05:09:19;7.45;;;6.10;;
62679;SDS011;48746;55.578;37.902;2022-07-11T05:11:45;11.52;;;6.03;;
62679;SDS011;48746;55.578;37.902;2022-07-11T05:17:18;7.38;;;6.38;;
62679;SDS011;48746;55.578;37.902;2022-07-11T05:19:44;9.57;;;6.15;;
62679;SDS011;48746;55.578;37.902;2022-07-11T05:22:11;8.90;;;6.22;;
62679;SDS011;48746;55.578;37.902;2022-07-11T05:27:45;11.02;;;6.10;;
62679;SDS011;48746;55.578;37.902;2022-07-11T05:30:11;15.60;;;7.10;;
62679;SDS011;48746;55.578;37.902;2022-07-11T05:32:37;17.85;;;6.53;;
62679;SDS011;48746;55.578;37.902;2022-07-11T05:38:10;15.40;;;6.82;;
62679;SDS011;48746;55.578;37.902;2022-07-11T05:40:36;8.85;;;5.72;;
62679;SDS011;48746;55.578;37.902;2022-07-11T05:43:02;24.40;;;6.82;;
62679;SDS011;48746;55.578;37.902;2022-07-11T05:45:28;12.10;;;6.30;;
62679;SDS011;48746;55.578;37.902;2022-07-11T05:47:55;14.80;;;6.28;;
62679;SDS011;48746;55.578;37.902;2022-07-11T05:50:21;12.77;;;6.38;;
62679;SDS011;48746;55.578;37.902;2022-07-11T05:52:47;12.02;;;6.13;;
62679;SDS011;48746;55.578;37.902;2022-07-11T05:58:20;14.48;;;5.82;;
62679;SDS011;48746;55.578;37.902;2022-07-11T06:00:47;9.98;;;5.88;;
62679;SDS011;48746;55.578;37.902;2022-07-11T06:03:16;14.10;;;5.97;;
62679;SDS011;48746;55.578;37.902;2022-07-11T06:05:42;13.83;;;5.77;;
62679;SDS011;48746;55.578;37.902;2022-07-11T06:08:08;10.57;;;5.20;;
62679;SDS011;48746;55.578;37.902;2022-07-11T06:10:53;7.90;;;5.28;;
62679;SDS011;48746;55.578;37.902;2022-07-11T06:13:22;13.38;;;5.95;;
62679;SDS011;48746;55.578;37.902;2022-07-11T06:15:48;16.90;;;5.57;;
62679;SDS011;48746;55.578;37.902;2022-07-11T06:18:14;15.75;;;5.82;;
62679;SDS011;48746;55.578;37.902;2022-07-11T06:20:40;12.65;;;6.20;;
62679;SDS011;48746;55.578;37.902;2022-07-11T06:23:07;17.08;;;6.20;;
62679;SDS011;48746;55.578;37.902;2022-07-11T06:25:34;17.33;;;5.97;;
62679;SDS011;48746;55.578;37.902;2022-07-11T06:28:01;11.45;;;5.30;;
62679;SDS011;48746;55.578;37.902;2022-07-11T06:30:27;9.80;;;5.25;;
62679;SDS011;48746;55.578;37.902;2022-07-11T06:32:53;13.13;;;5.28;;
62679;SDS011;48746;55.578;37.902;2022-07-11T06:38:27;18.73;;;5.80;;
62679;SDS011;48746;55.578;37.902;2022-07-11T06:40:54;23.67;;;6.15;;
62679;SDS011;48746;55.578;37.902;2022-07-11T06:43:24;14.75;;;5.50;;
62679;SDS011;48746;55.578;37.902;2022-07-11T06:45:50;25.85;;;6.15;;
62679;SDS011;48746;55.578;37.902;2022-07-11T06:48:17;14.48;;;6.15;;
62679;SDS011;48746;55.578;37.902;2022-07-11T06:50:43;7.13;;;5.40;;
62679;SDS011;48746;55.578;37.902;2022-07-11T06:53:12;21.58;;;6.47;;
62679;SDS011;48746;55.578;37.902;2022-07-11T06:55:38;11.07;;;5.40;;
62679;SDS011;48746;55.578;37.902;2022-07-11T06:58:05;15.50;;;6.03;;
62679;SDS011;48746;55.578;37.902;2022-07-11T07:00:31;21.48;;;5.93;;
62679;SDS011;48746;55.578;37.902;2022-07-11T07:02:58;19.02;;;6.40;;
62679;SDS011;48746;55.578;37.902;2022-07-11T07:05:25;17.27;;;5.47;;
62679;SDS011;48746;55.578;37.902;2022-07-11T07:07:51;12.00;;;5.10;;
62679;SDS011;48746;55.578;37.902;2022-07-11T07:10:18;7.47;;;5.07;;
62679;SDS011;48746;55.578;37.902;2022-07-11T07:12:45;8.13;;;5.07;;
62679;SDS011;48746;55.578;37.902;2022-07-11T07:18:19;10.80;;;4.85;;
62679;SDS011;48746;55.578;37.902;2022-07-11T07:20:46;7.65;;;5.53;;
62679;SDS011;48746;55.578;37.902;2022-07-11T07:23:17;8.63;;;5.20;;
62679;SDS011;48746;55.578;37.902;2022-07-11T07:25:44;8.63;;;5.03;;
62679;SDS011;48746;55.578;37.902;2022-07-11T07:28:11;7.78;;;5.35;;
62679;SDS011;48746;55.578;37.902;2022-07-11T07:30:38;7.63;;;6.93;;
62679;SDS011;48746;55.578;37.902;2022-07-11T07:33:04;5.80;;;5.10;;
62679;SDS011;48746;55.578;37.902;2022-07-11T07:35:30;7.32;;;5.25;;
62679;SDS011;48746;55.578;37.902;2022-07-11T07:37:57;6.45;;;5.40;;
62679;SDS011;48746;55.578;37.902;2022-07-11T07:40:23;16.02;;;5.10;;
62679;SDS011;48746;55.578;37.902;2022-07-11T07:42:49;7.25;;;5.03;;
62679;SDS011;48746;55.578;37.902;2022-07-11T07:48:21;8.13;;;5.25;;
62679;SDS011;48746;55.578;37.902;2022-07-11T07:50:48;5.78;;;5.18;;
62679;SDS011;48746;55.578;37.902;2022-07-11T07:53:17;9.50;;;4.82;;
62679;SDS011;48746;55.578;37.902;2022-07-11T07:55:43;10.98;;;5.05;;
62679;SDS011;48746;55.578;37.902;2022-07-11T07:58:09;11.27;;;5.20;;
62679;SDS011;48746;55.578;37.902;2022-07-11T08:00:35;7.13;;;5.10;;
62679;SDS011;48746;55.578;37.902;2022-07-11T08:03:23;6.15;;;5.05;;
62679;SDS011;48746;55.578;37.902;2022-07-11T08:05:49;10.60;;;4.97;;
62679;SDS011;48746;55.578;37.902;2022-07-11T08:08:15;7.70;;;4.80;;
62679;SDS011;48746;55.578;37.902;2022-07-11T08:10:42;7.75;;;4.63;;
62679;SDS011;48746;55.578;37.902;2022-07-11T08:13:11;6.75;;;5.45;;
62679;SDS011;48746;55.578;37.902;2022-07-11T08:15:37;6.25;;;4.63;;
62679;SDS011;48746;55.578;37.902;2022-07-11T08:18:04;13.38;;;5.40;;
62679;SDS011;48746;55.578;37.902;2022-07-11T08:20:30;8.23;;;5.30;;
62679;SDS011;48746;55.578;37.902;2022-07-11T08:22:59;6.68;;;5.00;;
62679;SDS011;48746;55.578;37.902;2022-07-11T08:25:27;10.48;;;5.63;;
62679;SDS011;48746;55.578;37.902;2022-07-11T08:27:53;8.65;;;6.10;;
62679;SDS011;48746;55.578;37.902;2022-07-11T08:30:20;8.43;;;4.93;;
62679;SDS011;48746;55.578;37.902;2022-07-11T08:32:46;8.10;;;5.05;;
62679;SDS011;48746;55.578;37.902;2022-07-11T08:35:15;5.43;;;4.78;;
62679;SDS011;48746;55.578;37.902;2022-07-11T08:37:41;7.22;;;4.90;;
62679;SDS011;48746;55.578;37.902;2022-07-11T08:40:09;7.18;;;5.28;;
62679;SDS011;48746;55.578;37.902;2022-07-11T08:42:38;11.27;;;5.18;;
62679;SDS011;48746;55.578;37.902;2022-07-11T08:45:07;8.43;;;5.47;;
62679;SDS011;48746;55.578;37.902;2022-07-11T08:47:36;7.43;;;5.40;;
62679;SDS011;48746;55.578;37.902;2022-07-11T08:50:02;13.40;;;5.40;;
62679;SDS011;48746;55.578;37.902;2022-07-11T08:52:32;6.97;;;5.20;;
62679;SDS011;48746;55.578;37.902;2022-07-11T08:55:01;6.07;;;4.88;;
62679;SDS011;48746;55.578;37.902;2022-07-11T08:57:33;12.85;;;5.25;;
62679;SDS011;48746;55.578;37.902;2022-07-11T09:00:01;5.30;;;4.90;;
62679;SDS011;48746;55.578;37.902;2022-07-11T09:02:30;9.25;;;5.45;;
62679;SDS011;48746;55.578;37.902;2022-07-11T09:05:01;9.50;;;5.55;;
62679;SDS011;48746;55.578;37.902;2022-07-11T09:07:32;10.95;;;5.13;;
62679;SDS011;48746;55.578;37.902;2022-07-11T09:09:58;8.95;;;5.13;;
62679;SDS011;48746;55.578;37.902;2022-07-11T09:12:25;13.95;;;5.60;;
62679;SDS011;48746;55.578;37.902;2022-07-11T09:17:58;11.13;;;5.00;;
62679;SDS011;48746;55.578;37.902;2022-07-11T09:20:24;7.22;;;5.00;;
62679;SDS011;48746;55.578;37.902;2022-07-11T09:22:50;6.63;;;4.95;;
62679;SDS011;48746;55.578;37.902;2022-07-11T09:25:41;8.10;;;5.10;;
62679;SDS011;48746;55.578;37.902;2022-07-11T09:28:08;7.68;;;4.95;;
62679;SDS011;48746;55.578;37.902;2022-07-11T09:30:36;5.05;;;4.60;;
62679;SDS011;48746;55.578;37.902;2022-07-11T09:33:09;19.05;;;5.95;;
62679;SDS011;48746;55.578;37.902;2022-07-11T09:35:37;11.38;;;5.40;;
62679;SDS011;48746;55.578;37.902;2022-07-11T09:38:06;7.57;;;4.95;;
62679;SDS011;48746;55.578;37.902;2022-07-11T09:40:34;8.45;;;4.68;;
62679;SDS011;48746;55.578;37.902;2022-07-11T09:43:04;8.10;;;4.32;;
62679;SDS011;48746;55.578;37.902;2022-07-11T09:45:31;6.75;;;4.40;;
62679;SDS011;48746;55.578;37.902;2022-07-11T09:47:59;5.57;;;4.70;;
62679;SDS011;48746;55.578;37.902;2022-07-11T09:50:30;5.47;;;4.40;;
62679;SDS011;48746;55.578;37.902;2022-07-11T09:55:28;6.13;;;4.57;;
62679;SDS011;48746;55.578;37.902;2022-07-11T09:57:55;9.57;;;5.07;;
62679;SDS011;48746;55.578;37.902;2022-07-11T10:00:21;10.98;;;4.63;;
62679;SDS011;48746;55.578;37.902;2022-07-11T10:02:47;10.10;;;4.55;;
62679;SDS011;48746;55.578;37.902;2022-07-11T10:05:17;7.68;;;4.90;;
62679;SDS011;48746;55.578;37.902;2022-07-11T10:07:43;10.40;;;4.40;;
62679;SDS011;48746;55.578;37.902;2022-07-11T10:10:10;8.65;;;4.60;;
62679;SDS011;48746;55.578;37.902;2022-07-11T10:12:36;11.48;;;4.72;;
62679;SDS011;48746;55.578;37.902;2022-07-11T10:15:07;9.80;;;4.30;;
62679;SDS011;48746;55.578;37.902;2022-07-11T10:20:08;10.00;;;4.40;;
62679;SDS011;48746;55.578;37.902;2022-07-11T10:22:44;9.48;;;4.60;;
62679;SDS011;48746;55.578;37.902;2022-07-11T10:28:02;11.73;;;4.75;;
62679;SDS011;48746;55.578;37.902;2022-07-11T10:30:54;9.13;;;4.93;;
62679;SDS011;48746;55.578;37.902;2022-07-11T10:36:33;7.10;;;4.35;;
62679;SDS011;48746;55.578;37.902;2022-07-11T10:39:22;7.05;;;4.70;;
62679;SDS011;48746;55.578;37.902;2022-07-11T10:41:53;12.55;;;4.30;;
62679;SDS011;48746;55.578;37.902;2022-07-11T10:50:46;10.40;;;4.68;;
62679;SDS011;48746;55.578;37.902;2022-07-11T10:53:08;7.53;;;4.78;;
62679;SDS011;48746;55.578;37.902;2022-07-11T10:56:04;8.80;;;4.68;;
62679;SDS011;48746;55.578;37.902;2022-07-11T10:58:46;10.88;;;4.70;;
62679;SDS011;48746;55.578;37.902;2022-07-11T11:01:19;8.60;;;4.55;;
62679;SDS011;48746;55.578;37.902;2022-07-11T11:03:48;7.95;;;4.28;;
62679;SDS011;48746;55.578;37.902;2022-07-11T11:06:15;11.10;;;4.43;;
62679;SDS011;48746;55.578;37.902;2022-07-11T11:08:46;13.35;;;4.78;;
62679;SDS011;48746;55.578;37.902;2022-07-11T11:16:52;9.32;;;4.25;;
62679;SDS011;48746;55.578;37.902;2022-07-11T11:22:16;7.00;;;4.10;;
62679;SDS011;48746;55.578;37.902;2022-07-11T11:24:47;10.27;;;4.40;;
62679;SDS011;48746;55.578;37.902;2022-07-11T11:27:17;8.77;;;4.22;;
62679;SDS011;48746;55.578;37.902;2022-07-11T11:29:51;6.38;;;4.10;;
62679;SDS011;48746;55.578;37.902;2022-07-11T11:32:19;8.70;;;4.57;;
62679;SDS011;48746;55.578;37.902;2022-07-11T11:34:46;9.07;;;4.60;;
62679;SDS011;48746;55.578;37.902;2022-07-11T11:37:14;11.52;;;4.40;;
62679;SDS011;48746;55.578;37.902;2022-07-11T11:39:40;14.85;;;4.65;;
62679;SDS011;48746;55.578;37.902;2022-07-11T11:42:11;11.65;;;3.95;;
62679;SDS011;48746;55.578;37.902;2022-07-11T11:47:47;12.77;;;4.22;;
62679;SDS011;48746;55.578;37.902;2022-07-11T11:50:14;17.75;;;4.20;;
62679;SDS011;48746;55.578;37.902;2022-07-11T11:52:40;8.18;;;4.40;;
62679;SDS011;48746;55.578;37.902;2022-07-11T11:55:07;13.07;;;4.38;;
62679;SDS011;48746;55.578;37.902;2022-07-11T11:57:35;8.13;;;4.40;;
62679;SDS011;48746;55.578;37.902;2022-07-11T12:00:01;9.77;;;4.10;;
62679;SDS011;48746;55.578;37.902;2022-07-11T12:02:30;9.63;;;4.30;;
62679;SDS011;48746;55.578;37.902;2022-07-11T12:04:59;13.10;;;4.35;;
62679;SDS011;48746;55.578;37.902;2022-07-11T12:07:33;15.25;;;4.40;;
62679;SDS011;48746;55.578;37.902;2022-07-11T12:09:59;12.02;;;4.20;;
62679;SDS011;48746;55.578;37.902;2022-07-11T12:12:29;15.00;;;4.28;;
62679;SDS011;48746;55.578;37.902;2022-07-11T12:15:23;10.70;;;4.20;;
62679;SDS011;48746;55.578;37.902;2022-07-11T12:18:22;10.27;;;4.10;;
62679;SDS011;48746;55.578;37.902;2022-07-11T12:20:50;11.32;;;4.05;;
62679;SDS011;48746;55.578;37.902;2022-07-11T12:26:23;13.70;;;4.93;;
62679;SDS011;48746;55.578;37.902;2022-07-11T12:29:23;11.02;;;4.20;;
62679;SDS011;48746;55.578;37.902;2022-07-11T12:37:19;14.95;;;4.30;;
62679;SDS011;48746;55.578;37.902;2022-07-11T12:39:50;11.95;;;4.10;;
62679;SDS011;48746;55.578;37.902;2022-07-11T12:42:22;19.50;;;4.70;;
62679;SDS011;48746;55.578;37.902;2022-07-11T12:47:59;19.48;;;4.85;;
62679;SDS011;48746;55.578;37.902;2022-07-11T12:50:26;8.20;;;4.30;;
62679;SDS011;48746;55.578;37.902;2022-07-11T12:52:55;16.77;;;5.00;;
62679;SDS011;48746;55.578;37.902;2022-07-11T12:55:33;8.82;;;4.30;;
62679;SDS011;48746;55.578;37.902;2022-07-11T13:00:33;23.23;;;5.40;;
62679;SDS011;48746;55.578;37.902;2022-07-11T13:03:04;13.32;;;4.60;;
62679;SDS011;48746;55.578;37.902;2022-07-11T13:05:49;11.25;;;4.65;;
62679;SDS011;48746;55.578;37.902;2022-07-11T13:08:27;13.20;;;4.28;;
62679;SDS011;48746;55.578;37.902;2022-07-11T13:11:14;11.50;;;4.40;;
62679;SDS011;48746;55.578;37.902;2022-07-11T13:17:02;8.52;;;4.70;;
62679;SDS011;48746;55.578;37.902;2022-07-11T13:19:28;9.40;;;4.50;;
62679;SDS011;48746;55.578;37.902;2022-07-11T13:21:55;16.63;;;4.63;;
62679;SDS011;48746;55.578;37.902;2022-07-11T13:27:29;6.93;;;4.03;;
62679;SDS011;48746;55.578;37.902;2022-07-11T13:29:55;8.80;;;4.28;;
62679;SDS011;48746;55.578;37.902;2022-07-11T13:32:22;11.57;;;4.65;;
62679;SDS011;48746;55.578;37.902;2022-07-11T13:34:52;11.73;;;4.63;;
62679;SDS011;48746;55.578;37.902;2022-07-11T13:37:18;14.43;;;4.20;;
62679;SDS011;48746;55.578;37.902;2022-07-11T13:39:44;17.85;;;4.82;;
62679;SDS011;48746;55.578;37.902;2022-07-11T13:42:11;11.88;;;4.32;;
62679;SDS011;48746;55.578;37.902;2022-07-11T13:44:40;13.95;;;4.15;;
62679;SDS011;48746;55.578;37.902;2022-07-11T13:47:06;12.38;;;4.00;;
62679;SDS011;48746;55.578;37.902;2022-07-11T13:49:33;16.55;;;4.32;;
62679;SDS011;48746;55.578;37.902;2022-07-11T13:52:00;15.38;;;4.55;;
62679;SDS011;48746;55.578;37.902;2022-07-11T13:54:29;14.90;;;4.35;;
62679;SDS011;48746;55.578;37.902;2022-07-11T13:56:55;18.45;;;4.32;;
62679;SDS011;48746;55.578;37.902;2022-07-11T13:59:21;13.68;;;3.78;;
62679;SDS011;48746;55.578;37.902;2022-07-11T14:01:48;15.45;;;4.70;;
62679;SDS011;48746;55.578;37.902;2022-07-11T14:04:17;14.38;;;4.50;;
62679;SDS011;48746;55.578;37.902;2022-07-11T14:06:43;12.02;;;4.22;;
62679;SDS011;48746;55.578;37.902;2022-07-11T14:09:09;12.35;;;4.13;;
62679;SDS011;48746;55.578;37.902;2022-07-11T14:11:35;12.50;;;4.55;;
62679;SDS011;48746;55.578;37.902;2022-07-11T14:14:05;14.10;;;4.38;;
62679;SDS011;48746;55.578;37.902;2022-07-11T14:16:31;13.95;;;4.15;;
62679;SDS011;48746;55.578;37.902;2022-07-11T14:18:57;10.57;;;3.70;;
62679;SDS011;48746;55.578;37.902;2022-07-11T14:21:26;13.05;;;3.80;;
62679;SDS011;48746;55.578;37.902;2022-07-11T14:23:56;13.10;;;3.85;;
62679;SDS011;48746;55.578;37.902;2022-07-11T14:26:23;7.75;;;3.88;;
62679;SDS011;48746;55.578;37.902;2022-07-11T14:28:49;13.30;;;3.90;;
62679;SDS011;48746;55.578;37.902;2022-07-11T14:31:15;10.32;;;3.97;;
62679;SDS011;48746;55.578;37.902;2022-07-11T14:33:45;15.68;;;4.07;;
62679;SDS011;48746;55.578;37.902;2022-07-11T14:36:12;15.10;;;4.13;;
62679;SDS011;48746;55.578;37.902;2022-07-11T14:38:38;9.85;;;4.07;;
62679;SDS011;48746;55.578;37.902;2022-07-11T14:41:05;15.13;;;4.28;;
62679;SDS011;48746;55.578;37.902;2022-07-11T14:43:34;16.23;;;4.43;;
62679;SDS011;48746;55.578;37.902;2022-07-11T14:46:00;12.40;;;5.43;;
62679;SDS011;48746;55.578;37.902;2022-07-11T14:48:27;10.25;;;3.97;;
62679;SDS011;48746;55.578;37.902;2022-07-11T14:50:54;12.85;;;4.22;;
62679;SDS011;48746;55.578;37.902;2022-07-11T14:53:24;15.82;;;4.43;;
62679;SDS011;48746;55.578;37.902;2022-07-11T14:55:53;12.27;;;4.28;;
62679;SDS011;48746;55.578;37.902;2022-07-11T14:58:20;14.98;;;4.25;;
62679;SDS011;48746;55.578;37.902;2022-07-11T15:00:47;10.55;;;4.18;;
62679;SDS011;48746;55.578;37.902;2022-07-11T15:03:13;9.95;;;4.10;;
62679;SDS011;48746;55.578;37.902;2022-07-11T15:05:58;12.13;;;5.18;;
62679;SDS011;48746;55.578;37.902;2022-07-11T15:08:25;12.02;;;4.43;;
62679;SDS011;48746;55.578;37.902;2022-07-11T15:11:10;11.75;;;4.18;;
62679;SDS011;48746;55.578;37.902;2022-07-11T15:14:12;9.88;;;4.35;;
62679;SDS011;48746;55.578;37.902;2022-07-11T15:16:40;12.05;;;4.60;;
62679;SDS011;48746;55.578;37.902;2022-07-11T15:19:07;15.65;;;4.15;;
62679;SDS011;48746;55.578;37.902;2022-07-11T15:21:33;14.50;;;4.78;;
62679;SDS011;48746;55.578;37.902;2022-07-11T15:24:03;17.33;;;4.50;;
62679;SDS011;48746;55.578;37.902;2022-07-11T15:26:29;13.95;;;4.82;;
62679;SDS011;48746;55.578;37.902;2022-07-11T15:28:56;12.98;;;5.03;;
62679;SDS011;48746;55.578;37.902;2022-07-11T15:31:22;13.82;;;5.22;;
62679;SDS011;48746;55.578;37.902;2022-07-11T15:33:51;22.42;;;4.97;;
62679;SDS011;48746;55.578;37.902;2022-07-11T15:36:18;18.52;;;5.05;;
62679;SDS011;48746;55.578;37.902;2022-07-11T15:38:45;18.30;;;4.82;;
62679;SDS011;48746;55.578;37.902;2022-07-11T15:41:16;15.18;;;4.88;;
62679;SDS011;48746;55.578;37.902;2022-07-11T15:43:45;16.98;;;4.72;;
62679;SDS011;48746;55.578;37.902;2022-07-11T15:46:12;15.07;;;5.00;;
62679;SDS011;48746;55.578;37.902;2022-07-11T15:48:38;23.30;;;5.00;;
62679;SDS011;48746;55.578;37.902;2022-07-11T15:51:05;15.93;;;4.47;;
62679;SDS011;48746;55.578;37.902;2022-07-11T15:53:34;6.90;;;4.25;;
62679;SDS011;48746;55.578;37.902;2022-07-11T15:56:01;15.75;;;4.45;;
62679;SDS011;48746;55.578;37.902;2022-07-11T15:58:29;12.13;;;4.22;;
62679;SDS011;48746;55.578;37.902;2022-07-11T16:01:00;12.85;;;4.78;;
62679;SDS011;48746;55.578;37.902;2022-07-11T16:03:30;14.43;;;5.32;;
62679;SDS011;48746;55.578;37.902;2022-07-11T16:05:56;11.43;;;4.70;;
62679;SDS011;48746;55.578;37.902;2022-07-11T16:08:23;7.88;;;4.70;;
62679;SDS011;48746;55.578;37.902;2022-07-11T16:10:50;10.30;;;4.70;;
62679;SDS011;48746;55.578;37.902;2022-07-11T16:16:42;14.98;;;4.60;;
62679;SDS011;48746;55.578;37.902;2022-07-11T16:19:08;13.35;;;4.65;;
62679;SDS011;48746;55.578;37.902;2022-07-11T16:21:35;17.17;;;4.82;;
62679;SDS011;48746;55.578;37.902;2022-07-11T16:27:07;12.05;;;5.00;;
62679;SDS011;48746;55.578;37.902;2022-07-11T16:29:34;13.13;;;4.43;;
62679;SDS011;48746;55.578;37.902;2022-07-11T16:32:00;15.15;;;4.43;;
62679;SDS011;48746;55.578;37.902;2022-07-11T16:37:33;12.75;;;4.03;;
62679;SDS011;48746;55.578;37.902;2022-07-11T16:40:00;12.40;;;3.90;;
62679;SDS011;48746;55.578;37.902;2022-07-11T16:42:45;9.90;;;4.07;;
62679;SDS011;48746;55.578;37.902;2022-07-11T16:45:29;8.25;;;4.00;;
62679;SDS011;48746;55.578;37.902;2022-07-11T16:47:56;7.57;;;3.80;;
62679;SDS011;48746;55.578;37.902;2022-07-11T16:50:21;12.07;;;4.15;;
62679;SDS011;48746;55.578;37.902;2022-07-11T16:52:48;9.18;;;3.80;;
62679;SDS011;48746;55.578;37.902;2022-07-11T16:58:22;10.85;;;3.75;;
62679;SDS011;48746;55.578;37.902;2022-07-11T17:00:48;13.55;;;5.00;;
62679;SDS011;48746;55.578;37.902;2022-07-11T17:03:18;10.45;;;4.20;;
62679;SDS011;48746;55.578;37.902;2022-07-11T17:05:44;11.35;;;4.65;;
62679;SDS011;48746;55.578;37.902;2022-07-11T17:08:11;8.80;;;4.20;;
62679;SDS011;48746;55.578;37.902;2022-07-11T17:11:00;8.70;;;3.92;;